createdAt,value
2023-05-02T00:00:14.069Z,148.97
2023-05-02T00:01:14.061Z,146.80
2023-05-02T00:02:14.171Z,142.81
2023-05-02T00:03:14.096Z,144.21
2023-05-02T00:04:14.113Z,144.19
2023-05-02T00:05:13.994Z,146.09
2023-05-02T00:06:14.044Z,146.17
2023-05-02T00:07:13.963Z,145.39
2023-05-02T00:08:13.948Z,146.09
2023-05-02T00:09:13.933Z,146.35
2023-05-02T00:10:13.924Z,146.02
2023-05-02T00:11:13.902Z,145.27
2023-05-02T00:12:13.877Z,146.78
2023-05-02T00:13:13.870Z,144.47
2023-05-02T00:14:13.875Z,145.53
2023-05-02T00:15:13.863Z,145.78
2023-05-02T00:16:13.850Z,147.16
2023-05-02T00:17:13.946Z,145.68
2023-05-02T00:18:13.910Z,142.00
2023-05-02T00:19:13.849Z,142.99
2023-05-02T00:20:13.884Z,149.06
2023-05-02T00:21:13.867Z,149.17
2023-05-02T00:22:13.882Z,145.59
2023-05-02T00:23:13.874Z,144.60
2023-05-02T00:24:13.854Z,146.11
2023-05-02T00:25:13.858Z,145.81
2023-05-02T00:26:13.847Z,146.05
2023-05-02T00:27:13.824Z,146.66
2023-05-02T00:28:13.878Z,145.92
2023-05-02T00:29:13.828Z,142.93
2023-05-02T00:30:13.809Z,143.61
2023-05-02T00:31:13.840Z,147.89
2023-05-02T00:32:13.799Z,149.25
2023-05-02T00:33:13.826Z,147.87
2023-05-02T00:34:13.782Z,148.57
2023-05-02T00:35:13.771Z,149.82
2023-05-02T00:36:13.759Z,144.24
2023-05-02T00:37:13.744Z,143.60
2023-05-02T00:38:13.722Z,144.29
2023-05-02T00:39:13.727Z,145.88
2023-05-02T00:40:13.716Z,141.52
2023-05-02T00:41:13.762Z,145.97
2023-05-02T00:42:13.690Z,145.18
2023-05-02T00:43:13.687Z,146.85
2023-05-02T00:44:13.680Z,145.38
2023-05-02T00:45:13.673Z,144.97
2023-05-02T00:46:13.738Z,150.59
2023-05-02T00:47:13.661Z,145.03
2023-05-02T00:48:13.709Z,141.52
2023-05-02T00:49:13.645Z,144.27
2023-05-02T00:50:13.748Z,146.58
2023-05-02T00:51:13.629Z,145.62
2023-05-02T00:52:13.630Z,146.06
2023-05-02T00:53:13.635Z,145.75
2023-05-02T00:54:13.612Z,149.88
2023-05-02T00:55:13.596Z,143.80
2023-05-02T00:56:13.680Z,151.61
2023-05-02T00:57:13.679Z,148.62
2023-05-02T00:58:13.641Z,144.95
2023-05-02T00:59:13.692Z,144.66
2023-05-02T01:00:13.696Z,144.84
2023-05-02T01:01:13.772Z,144.69
2023-05-02T01:02:13.728Z,145.60
2023-05-02T01:03:13.724Z,143.60
2023-05-02T01:04:13.871Z,143.89
2023-05-02T01:05:13.673Z,144.47
2023-05-02T01:06:13.715Z,147.13
2023-05-02T01:07:13.676Z,144.95
2023-05-02T01:08:13.661Z,146.22
2023-05-02T01:09:13.668Z,146.13
2023-05-02T01:10:13.677Z,147.77
2023-05-02T01:11:13.706Z,149.13
2023-05-02T01:12:13.696Z,145.06
2023-05-02T01:13:13.697Z,149.84
2023-05-02T01:14:13.717Z,150.51
2023-05-02T01:15:13.721Z,141.58
2023-05-02T01:16:13.748Z,144.84
2023-05-02T01:17:13.734Z,148.59
2023-05-02T01:18:13.892Z,144.72
2023-05-02T01:19:13.787Z,146.06
2023-05-02T01:20:13.807Z,147.24
2023-05-02T01:21:13.811Z,145.33
2023-05-02T01:22:13.817Z,146.87
2023-05-02T01:23:13.830Z,142.00
2023-05-02T01:24:13.853Z,143.92
2023-05-02T01:25:13.858Z,146.59
2023-05-02T01:26:13.882Z,148.31
2023-05-02T01:27:13.887Z,146.62
2023-05-02T01:28:13.913Z,147.83
2023-05-02T01:29:13.929Z,143.62
2023-05-02T01:30:13.946Z,148.75
2023-05-02T01:31:14.019Z,143.23
2023-05-02T01:32:13.968Z,144.68
2023-05-02T01:33:14.044Z,144.82
2023-05-02T01:34:14.001Z,147.39
2023-05-02T01:35:13.995Z,144.99
2023-05-02T01:36:14.012Z,145.26
2023-05-02T01:37:14.029Z,142.54
2023-05-02T01:38:14.037Z,146.62
2023-05-02T01:39:14.033Z,146.59
2023-05-02T01:40:14.047Z,143.68
2023-05-02T01:41:14.057Z,140.57
2023-05-02T01:42:14.064Z,145.16
2023-05-02T01:43:14.070Z,144.59
2023-05-02T01:44:14.069Z,142.95
2023-05-02T01:45:14.073Z,144.92
2023-05-02T01:46:14.092Z,143.06
2023-05-02T01:47:14.145Z,146.99
2023-05-02T01:48:14.095Z,143.16
2023-05-02T01:49:14.117Z,142.85
2023-05-02T01:50:14.125Z,148.14
2023-05-02T01:51:14.136Z,148.12
2023-05-02T01:52:14.135Z,143.00
2023-05-02T01:53:14.156Z,144.81
2023-05-02T01:54:14.177Z,147.24
2023-05-02T01:55:14.178Z,143.88
2023-05-02T01:56:14.213Z,147.29
2023-05-02T01:57:14.211Z,145.50
2023-05-02T01:58:14.235Z,144.76
2023-05-02T01:59:14.241Z,148.68
2023-05-02T02:00:14.235Z,143.12
2023-05-02T02:01:14.238Z,143.43
2023-05-02T02:02:14.212Z,144.34
2023-05-02T02:03:14.260Z,145.04
2023-05-02T02:04:14.266Z,147.00
2023-05-02T02:05:14.199Z,147.37
2023-05-02T02:06:14.210Z,147.93
2023-05-02T02:07:14.179Z,150.18
2023-05-02T02:08:14.166Z,149.32
2023-05-02T02:09:14.150Z,146.65
2023-05-02T02:10:14.148Z,147.67
2023-05-02T02:11:14.150Z,147.08
2023-05-02T02:12:14.138Z,144.82
2023-05-02T02:13:14.135Z,145.91
2023-05-02T02:14:14.150Z,143.58
2023-05-02T02:15:14.128Z,146.11
2023-05-02T02:16:14.218Z,146.94
2023-05-02T02:17:14.104Z,145.57
2023-05-02T02:18:14.162Z,146.64
2023-05-02T02:19:14.086Z,145.36
2023-05-02T02:20:14.075Z,146.90
2023-05-02T02:21:14.076Z,147.10
2023-05-02T02:22:14.079Z,148.95
2023-05-02T02:23:14.044Z,147.02
2023-05-02T02:24:14.050Z,141.56
2023-05-02T02:25:14.034Z,140.48
2023-05-02T02:26:14.019Z,142.01
2023-05-02T02:27:14.006Z,145.81
2023-05-02T02:28:14.014Z,145.99
2023-05-02T02:29:13.991Z,146.12
2023-05-02T02:30:13.978Z,146.02
2023-05-02T02:31:14.008Z,146.57
2023-05-02T02:32:13.962Z,144.85
2023-05-02T02:33:13.989Z,146.00
2023-05-02T02:34:13.936Z,146.54
2023-05-02T02:35:13.937Z,146.91
2023-05-02T02:36:13.906Z,148.42
2023-05-02T02:37:13.896Z,147.35
2023-05-02T02:38:13.867Z,145.47
2023-05-02T02:39:13.876Z,148.57
2023-05-02T02:40:13.837Z,145.69
2023-05-02T02:41:13.842Z,143.92
2023-05-02T02:42:13.969Z,142.62
2023-05-02T02:43:13.788Z,147.18
2023-05-02T02:44:13.856Z,146.23
2023-05-02T02:45:13.764Z,145.48
2023-05-02T02:46:13.789Z,140.77
2023-05-02T02:47:13.746Z,143.83
2023-05-02T02:48:13.771Z,144.47
2023-05-02T02:49:13.744Z,141.48
2023-05-02T02:50:13.733Z,143.76
2023-05-02T02:51:13.723Z,144.29
2023-05-02T02:52:13.718Z,139.24
2023-05-02T02:53:13.716Z,141.26
2023-05-02T02:54:25.923Z,145.59
2023-05-02T02:55:14.693Z,145.67
2023-05-02T02:56:13.689Z,145.79
2023-05-02T02:57:13.677Z,147.34
2023-05-02T02:58:13.654Z,148.03
2023-05-02T02:59:13.631Z,148.05
2023-05-02T03:00:13.635Z,147.47
2023-05-02T03:01:13.692Z,146.30
2023-05-02T03:02:13.692Z,141.76
2023-05-02T03:03:13.680Z,145.07
2023-05-02T03:04:13.713Z,147.19
2023-05-02T03:05:13.647Z,146.22
2023-05-02T03:06:13.666Z,145.49
2023-05-02T03:07:13.621Z,145.80
2023-05-02T03:08:13.591Z,145.70
2023-05-02T03:09:13.584Z,147.04
2023-05-02T03:10:13.580Z,144.11
2023-05-02T03:11:13.589Z,147.72
2023-05-02T03:12:13.574Z,148.08
2023-05-02T03:13:13.559Z,142.73
2023-05-02T03:14:13.549Z,141.61
2023-05-02T03:15:13.544Z,146.68
2023-05-02T03:16:13.560Z,146.35
2023-05-02T03:17:13.536Z,146.27
2023-05-02T03:18:13.574Z,147.77
2023-05-02T03:19:13.503Z,146.77
2023-05-02T03:20:13.503Z,149.80
2023-05-02T03:21:13.477Z,145.58
2023-05-02T03:22:13.470Z,146.07
2023-05-02T03:23:13.450Z,146.17
2023-05-02T03:24:13.443Z,145.71
2023-05-02T03:25:13.450Z,144.34
2023-05-02T03:26:13.445Z,145.60
2023-05-02T03:27:13.423Z,142.76
2023-05-02T03:28:13.408Z,146.70
2023-05-02T03:29:13.443Z,147.04
2023-05-02T03:30:13.456Z,150.32
2023-05-02T03:31:13.421Z,148.26
2023-05-02T03:32:13.455Z,144.89
2023-05-02T03:33:13.388Z,144.75
2023-05-02T03:34:13.358Z,149.05
2023-05-02T03:35:13.338Z,147.04
2023-05-02T03:36:13.359Z,144.68
2023-05-02T03:37:13.353Z,145.88
2023-05-02T03:38:13.358Z,145.60
2023-05-02T03:39:13.309Z,145.61
2023-05-02T03:40:13.325Z,145.63
2023-05-02T03:41:13.282Z,146.26
2023-05-02T03:42:13.363Z,147.42
2023-05-02T03:43:13.265Z,148.86
2023-05-02T03:44:13.298Z,146.91
2023-05-02T03:45:13.299Z,146.39
2023-05-02T03:46:13.339Z,143.71
2023-05-02T03:47:13.621Z,149.69
2023-05-02T03:48:13.263Z,147.40
2023-05-02T03:49:13.288Z,147.55
2023-05-02T03:50:13.240Z,147.84
2023-05-02T03:51:13.189Z,148.21
2023-05-02T03:52:13.190Z,148.83
2023-05-02T03:53:13.147Z,146.73
2023-05-02T03:54:13.183Z,148.55
2023-05-02T03:55:13.120Z,151.28
2023-05-02T03:56:13.107Z,148.69
2023-05-02T03:57:13.113Z,144.72
2023-05-02T03:58:13.107Z,146.17
2023-05-02T03:59:13.083Z,145.15
2023-05-02T04:00:13.071Z,143.25
2023-05-02T04:01:13.068Z,141.76
2023-05-02T04:02:13.099Z,145.70
2023-05-02T04:03:13.113Z,147.48
2023-05-02T04:04:13.106Z,143.07
2023-05-02T04:05:13.022Z,148.96
2023-05-02T04:06:13.378Z,145.53
2023-05-02T04:07:13.025Z,142.86
2023-05-02T04:08:13.003Z,142.56
2023-05-02T04:09:13.018Z,141.74
2023-05-02T04:10:13.036Z,145.04
2023-05-02T04:11:13.049Z,145.78
2023-05-02T04:12:12.976Z,145.73
2023-05-02T04:13:12.989Z,143.31
2023-05-02T04:14:13.075Z,143.33
2023-05-02T04:15:12.955Z,142.03
2023-05-02T04:16:13.075Z,145.05
2023-05-02T04:17:13.063Z,145.18
2023-05-02T04:18:13.065Z,145.35
2023-05-02T04:19:12.992Z,144.46
2023-05-02T04:20:12.964Z,145.11
2023-05-02T04:21:12.925Z,144.62
2023-05-02T04:22:12.917Z,148.35
2023-05-02T04:23:12.924Z,146.04
2023-05-02T04:24:12.922Z,146.61
2023-05-02T04:25:12.911Z,140.98
2023-05-02T04:26:12.883Z,141.21
2023-05-02T04:27:15.163Z,142.65
2023-05-02T04:28:13.034Z,143.84
2023-05-02T04:29:13.006Z,144.72
2023-05-02T04:30:13.010Z,147.99
2023-05-02T04:31:13.077Z,148.28
2023-05-02T04:32:13.102Z,147.92
2023-05-02T04:33:13.082Z,147.93
2023-05-02T04:34:13.129Z,146.79
2023-05-02T04:35:13.073Z,143.06
2023-05-02T04:36:13.002Z,144.57
2023-05-02T04:37:13.076Z,148.05
2023-05-02T04:38:13.067Z,146.52
2023-05-02T04:39:13.017Z,147.92
2023-05-02T04:40:12.978Z,149.27
2023-05-02T04:41:12.960Z,149.76
2023-05-02T04:42:13.017Z,145.86
2023-05-02T04:43:12.905Z,148.33
2023-05-02T04:44:12.889Z,147.11
2023-05-02T04:45:12.875Z,145.25
2023-05-02T04:46:12.887Z,145.76
2023-05-02T04:47:12.859Z,148.43
2023-05-02T04:48:13.002Z,143.90
2023-05-02T04:49:12.836Z,143.90
2023-05-02T04:50:12.817Z,148.66
2023-05-02T04:51:14.276Z,148.67
2023-05-02T04:52:12.793Z,149.03
2023-05-02T04:53:12.771Z,148.69
2023-05-02T04:54:12.769Z,150.10
2023-05-02T04:55:12.817Z,148.58
2023-05-02T04:56:12.756Z,147.06
2023-05-02T04:57:12.749Z,146.73
2023-05-02T04:58:12.781Z,145.47
2023-05-02T04:59:12.719Z,143.95
2023-05-02T05:00:12.725Z,144.27
2023-05-02T05:01:12.719Z,150.17
2023-05-02T05:02:12.870Z,150.26
2023-05-02T05:03:12.761Z,147.37
2023-05-02T05:04:12.804Z,146.12
2023-05-02T05:05:12.698Z,147.87
2023-05-02T05:06:12.827Z,146.95
2023-05-02T05:07:12.651Z,144.27
2023-05-02T05:08:12.645Z,147.96
2023-05-02T05:09:12.621Z,148.53
2023-05-02T05:10:12.624Z,146.33
2023-05-02T05:11:12.583Z,144.89
2023-05-02T05:12:12.587Z,148.33
2023-05-02T05:13:12.571Z,148.45
2023-05-02T05:14:12.568Z,146.96
2023-05-02T05:15:12.586Z,145.42
2023-05-02T05:16:12.619Z,144.08
2023-05-02T05:17:12.569Z,146.62
2023-05-02T05:18:12.575Z,148.44
2023-05-02T05:19:12.528Z,144.89
2023-05-02T05:20:12.529Z,143.28
2023-05-02T05:21:12.506Z,144.39
2023-05-02T05:22:12.508Z,147.90
2023-05-02T05:23:12.502Z,145.82
2023-05-02T05:24:12.493Z,140.10
2023-05-02T05:25:12.482Z,140.49
2023-05-02T05:26:12.495Z,141.10
2023-05-02T05:27:12.472Z,141.63
2023-05-02T05:28:12.459Z,143.40
2023-05-02T05:29:12.445Z,148.58
2023-05-02T05:30:12.469Z,146.17
2023-05-02T05:31:13.998Z,149.10
2023-05-02T05:32:12.516Z,147.60
2023-05-02T05:33:12.551Z,145.70
2023-05-02T05:34:12.521Z,145.89
2023-05-02T05:35:12.399Z,146.56
2023-05-02T05:36:12.396Z,146.59
2023-05-02T05:37:12.385Z,150.48
2023-05-02T05:38:12.405Z,163.49
2023-05-02T05:39:12.598Z,166.63
2023-05-02T05:40:12.342Z,173.70
2023-05-02T05:41:12.318Z,178.74
2023-05-02T05:42:12.321Z,190.25
2023-05-02T05:43:12.293Z,191.61
2023-05-02T05:44:12.270Z,198.74
2023-05-02T05:45:12.266Z,216.76
2023-05-02T05:46:12.253Z,223.30
2023-05-02T05:47:12.288Z,233.12
2023-05-02T05:48:12.288Z,250.00
2023-05-02T05:49:12.223Z,250.00
2023-05-02T05:50:12.213Z,250.52
2023-05-02T05:51:12.228Z,250.00
2023-05-02T05:52:12.183Z,250.41
2023-05-02T05:53:12.178Z,252.83
2023-05-02T05:54:12.157Z,258.62
2023-05-02T05:55:12.132Z,270.14
2023-05-02T05:56:12.125Z,284.67
2023-05-02T05:57:12.112Z,262.48
2023-05-02T05:58:12.132Z,249.24
2023-05-02T05:59:12.089Z,247.92
2023-05-02T06:00:12.165Z,248.26
2023-05-02T06:01:12.068Z,250.00
2023-05-02T06:02:12.095Z,250.00
2023-05-02T06:03:12.070Z,248.47
2023-05-02T06:04:12.252Z,247.80
2023-05-02T06:05:12.075Z,249.50
2023-05-02T06:06:12.132Z,249.64
2023-05-02T06:07:12.003Z,248.22
2023-05-02T06:08:12.004Z,249.10
2023-05-02T06:09:11.979Z,248.90
2023-05-02T06:10:11.982Z,248.96
2023-05-02T06:11:12.006Z,247.35
2023-05-02T06:12:11.955Z,246.84
2023-05-02T06:13:11.994Z,246.26
2023-05-02T06:14:11.942Z,246.35
2023-05-02T06:15:11.938Z,246.39
2023-05-02T06:16:12.032Z,243.33
2023-05-02T06:17:11.918Z,246.29
2023-05-02T06:18:11.912Z,245.86
2023-05-02T06:19:11.930Z,245.98
2023-05-02T06:20:11.898Z,241.34
2023-05-02T06:21:11.954Z,241.10
2023-05-02T06:22:11.985Z,240.34
2023-05-02T06:23:11.931Z,240.49
2023-05-02T06:24:12.000Z,240.58
2023-05-02T06:25:11.899Z,238.87
2023-05-02T06:26:12.873Z,238.44
2023-05-02T06:27:11.942Z,236.87
2023-05-02T06:28:12.082Z,237.06
2023-05-02T06:29:12.047Z,236.24
2023-05-02T06:30:11.947Z,234.34
2023-05-02T06:31:12.019Z,233.96
2023-05-02T06:32:11.956Z,234.48
2023-05-02T06:33:12.061Z,231.20
2023-05-02T06:34:12.033Z,231.65
2023-05-02T06:35:11.923Z,232.67
2023-05-02T06:36:11.880Z,230.65
2023-05-02T06:37:11.994Z,231.07
2023-05-02T06:38:11.954Z,231.09
2023-05-02T06:39:11.967Z,230.85
2023-05-02T06:40:11.908Z,231.19
2023-05-02T06:41:12.042Z,230.01
2023-05-02T06:42:11.908Z,226.68
2023-05-02T06:43:11.875Z,224.22
2023-05-02T06:44:11.801Z,229.38
2023-05-02T06:45:11.782Z,226.65
2023-05-02T06:46:11.841Z,231.38
2023-05-02T06:47:11.859Z,231.81
2023-05-02T06:48:11.839Z,235.97
2023-05-02T06:49:11.761Z,240.11
2023-05-02T06:50:11.704Z,246.51
2023-05-02T06:51:11.831Z,248.54
2023-05-02T06:52:11.818Z,248.94
2023-05-02T06:53:11.813Z,249.22
2023-05-02T06:54:11.916Z,250.73
2023-05-02T06:55:11.777Z,254.81
2023-05-02T06:56:11.767Z,263.17
2023-05-02T06:57:11.792Z,274.43
2023-05-02T06:58:11.811Z,259.30
2023-05-02T06:59:11.719Z,259.67
2023-05-02T07:00:11.729Z,261.07
2023-05-02T07:01:11.772Z,265.58
2023-05-02T07:02:11.679Z,272.90
2023-05-02T07:03:11.716Z,286.03
2023-05-02T07:04:11.701Z,271.44
2023-05-02T07:05:11.622Z,258.60
2023-05-02T07:06:11.654Z,258.77
2023-05-02T07:07:11.598Z,259.46
2023-05-02T07:08:11.611Z,261.06
2023-05-02T07:09:11.560Z,266.40
2023-05-02T07:10:11.530Z,273.85
2023-05-02T07:11:11.641Z,260.07
2023-05-02T07:12:11.622Z,250.00
2023-05-02T07:13:11.549Z,250.00
2023-05-02T07:14:11.637Z,249.04
2023-05-02T07:15:11.492Z,248.95
2023-05-02T07:16:11.501Z,249.17
2023-05-02T07:17:12.386Z,249.80
2023-05-02T07:18:11.472Z,251.79
2023-05-02T07:19:11.423Z,255.54
2023-05-02T07:20:11.410Z,261.57
2023-05-02T07:21:11.338Z,250.92
2023-05-02T07:22:11.296Z,250.00
2023-05-02T07:23:11.315Z,250.00
2023-05-02T07:24:11.260Z,249.75
2023-05-02T07:25:11.293Z,250.00
2023-05-02T07:26:11.215Z,249.42
2023-05-02T07:27:11.255Z,249.21
2023-05-02T07:28:11.214Z,250.00
2023-05-02T07:29:11.149Z,248.71
2023-05-02T07:30:11.231Z,249.20
2023-05-02T07:31:11.092Z,249.41
2023-05-02T07:32:11.138Z,248.78
2023-05-02T07:33:11.110Z,250.00
2023-05-02T07:34:11.044Z,249.08
2023-05-02T07:35:11.906Z,248.99
2023-05-02T07:36:10.991Z,249.81
2023-05-02T07:37:11.005Z,247.73
2023-05-02T07:38:11.018Z,249.40
2023-05-02T07:39:11.051Z,249.64
2023-05-02T07:40:10.902Z,249.72
2023-05-02T07:41:10.930Z,249.93
2023-05-02T07:42:10.983Z,249.74
2023-05-02T07:43:11.314Z,248.60
2023-05-02T07:44:10.830Z,248.13
2023-05-02T07:45:10.789Z,246.51
2023-05-02T07:46:10.920Z,241.16
2023-05-02T07:47:10.738Z,158.38
2023-05-02T07:48:10.762Z,93.62
2023-05-02T07:49:10.709Z,63.09
2023-05-02T07:50:10.688Z,45.38
2023-05-02T07:51:10.725Z,29.51
2023-05-02T07:52:10.654Z,0.00
2023-05-02T07:53:10.660Z,0.00
2023-05-02T07:54:10.646Z,0.00
2023-05-02T07:55:10.634Z,0.00
2023-05-02T07:56:10.627Z,0.00
2023-05-02T07:57:10.601Z,0.00
2023-05-02T07:58:10.665Z,0.00
2023-05-02T07:59:10.604Z,0.00
2023-05-02T08:00:10.598Z,0.00
2023-05-02T08:01:10.611Z,0.00
2023-05-02T08:02:11.172Z,0.00
2023-05-02T08:03:10.764Z,0.00
2023-05-02T08:04:10.839Z,0.00
2023-05-02T08:05:10.695Z,0.00
2023-05-02T08:06:10.650Z,0.00
2023-05-02T08:07:10.576Z,0.00
2023-05-02T08:08:10.601Z,0.00
2023-05-02T08:09:10.579Z,0.00
2023-05-02T08:10:10.574Z,0.00
2023-05-02T08:11:10.579Z,0.00
2023-05-02T08:12:10.558Z,0.00
2023-05-02T08:13:10.605Z,0.00
2023-05-02T08:14:10.613Z,0.00
2023-05-02T08:15:10.553Z,0.00
2023-05-02T08:16:10.579Z,0.00
2023-05-02T08:17:10.536Z,0.00
2023-05-02T08:18:10.642Z,0.00
2023-05-02T08:19:10.559Z,0.00
2023-05-02T08:20:10.530Z,0.00
2023-05-02T08:21:10.563Z,0.00
2023-05-02T08:22:10.521Z,0.00
2023-05-02T08:23:10.501Z,0.00
2023-05-02T08:24:10.496Z,0.00
2023-05-02T08:25:10.510Z,0.00
2023-05-02T08:26:10.507Z,0.00
2023-05-02T08:27:10.507Z,0.00
2023-05-02T08:28:10.509Z,0.00
2023-05-02T08:29:10.484Z,0.00
2023-05-02T08:30:10.482Z,0.00
2023-05-02T08:31:10.510Z,0.00
2023-05-02T08:32:10.594Z,6.58
2023-05-02T08:33:10.628Z,15.48
2023-05-02T08:34:10.489Z,18.49
2023-05-02T08:35:10.457Z,22.81
2023-05-02T08:36:10.462Z,26.21
2023-05-02T08:37:10.673Z,25.63
2023-05-02T08:38:10.499Z,25.77
2023-05-02T08:39:10.461Z,25.00
2023-05-02T08:40:10.499Z,25.27
2023-05-02T08:41:10.459Z,25.53
2023-05-02T08:42:10.565Z,25.72
2023-05-02T08:43:10.548Z,25.00
2023-05-02T08:44:10.679Z,27.37
2023-05-02T08:45:10.685Z,26.16
2023-05-02T08:46:10.754Z,29.07
2023-05-02T08:47:10.906Z,33.74
2023-05-02T08:48:10.971Z,44.44
2023-05-02T08:49:10.919Z,53.67
2023-05-02T08:50:10.962Z,66.18
2023-05-02T08:51:10.990Z,73.96
2023-05-02T08:52:11.015Z,83.77
2023-05-02T08:53:11.051Z,89.88
2023-05-02T08:54:11.053Z,95.55
2023-05-02T08:55:11.036Z,102.21
2023-05-02T08:56:11.069Z,108.51
2023-05-02T08:57:11.056Z,115.92
2023-05-02T08:58:11.071Z,123.72
2023-05-02T09:00:29.919Z,25.00
2023-05-02T09:01:29.955Z,25.00
2023-05-02T09:02:30.016Z,25.00
2023-05-02T09:03:29.911Z,25.00
2023-05-02T09:04:29.927Z,25.00
2023-05-02T09:05:29.994Z,147.91
2023-05-02T09:06:30.045Z,304.47
2023-05-02T09:07:29.941Z,305.84
2023-05-02T09:08:29.931Z,302.17
2023-05-02T09:09:29.894Z,280.69
2023-05-02T09:10:29.916Z,265.67
2023-05-02T09:11:29.906Z,261.00
2023-05-02T09:12:30.051Z,256.65
2023-05-02T09:13:29.921Z,249.14
2023-05-02T09:14:29.908Z,249.18
2023-05-02T09:15:29.904Z,249.47
2023-05-02T09:16:29.933Z,252.40
2023-05-02T09:17:29.928Z,256.18
2023-05-02T09:18:29.892Z,249.79
2023-05-02T09:19:29.888Z,252.38
2023-05-02T09:20:29.900Z,250.05
2023-05-02T09:21:29.905Z,253.38
2023-05-02T09:22:29.912Z,261.90
2023-05-02T09:23:29.873Z,276.82
2023-05-02T09:24:29.891Z,297.47
2023-05-02T09:25:29.865Z,280.56
2023-05-02T09:26:31.605Z,260.87
2023-05-02T09:27:29.843Z,259.11
2023-05-02T09:28:29.942Z,265.38
2023-05-02T09:29:29.869Z,256.79
2023-05-02T09:30:29.871Z,243.96
2023-05-02T09:31:49.792Z,242.44
2023-05-02T09:32:30.933Z,242.35
2023-05-02T09:33:29.858Z,241.62
2023-05-02T09:34:29.821Z,240.01
2023-05-02T09:35:29.827Z,243.48
2023-05-02T09:36:29.825Z,246.75
2023-05-02T09:37:29.789Z,246.57
2023-05-02T09:38:29.793Z,248.81
2023-05-02T09:39:29.792Z,247.31
2023-05-02T09:40:29.766Z,248.33
2023-05-02T09:41:29.814Z,244.98
2023-05-02T09:42:29.795Z,247.40
2023-05-02T09:43:29.799Z,241.05
2023-05-02T09:44:29.767Z,244.20
2023-05-02T09:45:29.762Z,241.74
2023-05-02T09:46:29.790Z,238.61
2023-05-02T09:47:29.778Z,224.10
2023-05-02T09:48:29.737Z,209.17
2023-05-02T09:49:29.751Z,199.76
2023-05-02T09:50:29.714Z,193.32
2023-05-02T09:51:29.716Z,190.86
2023-05-02T09:52:29.741Z,175.84
2023-05-02T09:53:29.753Z,169.23
2023-05-02T09:54:29.723Z,159.34
2023-05-02T09:55:29.746Z,149.28
2023-05-02T09:56:29.734Z,141.53
2023-05-02T09:57:29.753Z,129.37
2023-05-02T09:58:30.725Z,120.27
2023-05-02T09:59:30.020Z,110.70
2023-05-02T10:00:29.829Z,106.39
2023-05-02T10:01:29.740Z,114.11
2023-05-02T10:02:29.954Z,117.12
2023-05-02T10:03:29.916Z,111.07
2023-05-02T10:04:29.978Z,109.77
2023-05-02T10:05:30.092Z,106.44
2023-05-02T10:06:29.800Z,107.22
2023-05-02T10:07:29.703Z,104.54
2023-05-02T10:08:29.787Z,104.02
2023-05-02T10:09:29.695Z,103.80
2023-05-02T10:10:29.918Z,107.63
2023-05-02T10:11:29.780Z,107.86
2023-05-02T10:12:29.795Z,105.32
2023-05-02T10:13:29.825Z,105.07
2023-05-02T10:14:29.857Z,109.17
2023-05-02T10:15:29.834Z,109.36
2023-05-02T10:16:30.201Z,109.36
2023-05-02T10:17:29.937Z,109.89
2023-05-02T10:18:29.865Z,114.04
2023-05-02T10:19:29.925Z,121.29
2023-05-02T10:20:29.914Z,122.63
2023-05-02T10:21:29.874Z,126.75
2023-05-02T10:22:29.874Z,131.38
2023-05-02T10:23:29.887Z,136.09
2023-05-02T10:24:29.879Z,138.83
2023-05-02T10:25:29.872Z,137.33
2023-05-02T10:26:29.886Z,140.22
2023-05-02T10:27:29.877Z,142.83
2023-05-02T10:28:29.902Z,143.00
2023-05-02T10:29:29.883Z,144.27
2023-05-02T10:30:29.886Z,147.32
2023-05-02T10:31:29.907Z,146.56
2023-05-02T10:32:29.992Z,149.55
2023-05-02T10:33:29.939Z,148.94
2023-05-02T10:34:29.912Z,150.08
2023-05-02T10:35:29.919Z,149.09
2023-05-02T10:36:29.912Z,151.59
2023-05-02T10:37:29.926Z,151.78
2023-05-02T10:38:29.920Z,150.44
2023-05-02T10:39:29.928Z,151.93
2023-05-02T10:40:29.955Z,152.30
2023-05-02T10:41:29.984Z,152.66
2023-05-02T10:42:30.007Z,150.97
2023-05-02T10:43:30.030Z,150.54
2023-05-02T10:44:30.059Z,152.57
2023-05-02T10:45:30.111Z,153.02
2023-05-02T10:46:30.171Z,151.74
2023-05-02T10:47:30.170Z,152.01
2023-05-02T10:48:30.163Z,153.37
2023-05-02T10:49:30.179Z,151.17
2023-05-02T10:50:30.203Z,150.86
2023-05-02T10:51:30.240Z,151.52
2023-05-02T10:52:30.277Z,151.62
2023-05-02T10:53:30.243Z,151.63
2023-05-02T10:54:30.241Z,151.35
2023-05-02T10:55:30.257Z,151.04
2023-05-02T10:56:30.243Z,151.56
2023-05-02T10:57:30.284Z,151.67
2023-05-02T10:58:30.265Z,150.93
2023-05-02T10:59:30.254Z,149.35
2023-05-02T11:00:30.299Z,149.53
2023-05-02T11:01:30.471Z,148.79
2023-05-02T11:02:30.307Z,148.91
2023-05-02T11:03:30.284Z,147.59
2023-05-02T11:04:30.259Z,149.12
2023-05-02T11:05:30.263Z,148.09
2023-05-02T11:06:30.365Z,145.63
2023-05-02T11:07:30.311Z,145.91
2023-05-02T11:08:30.268Z,146.17
2023-05-02T11:09:30.234Z,145.89
2023-05-02T11:10:30.238Z,144.58
2023-05-02T11:11:30.231Z,145.45
2023-05-02T11:12:30.298Z,144.89
2023-05-02T11:13:31.090Z,145.57
2023-05-02T11:14:30.381Z,146.39
2023-05-02T11:15:30.245Z,143.99
2023-05-02T11:16:30.285Z,144.28
2023-05-02T11:17:30.293Z,144.67
2023-05-02T11:18:30.249Z,143.63
2023-05-02T11:19:31.582Z,143.08
2023-05-02T11:20:32.125Z,142.44
2023-05-02T11:21:30.318Z,142.09
2023-05-02T11:22:30.330Z,143.07
2023-05-02T11:23:30.420Z,141.72
2023-05-02T11:24:30.402Z,141.62
2023-05-02T11:25:30.922Z,141.56
2023-05-02T11:26:30.436Z,141.77
2023-05-02T11:27:30.605Z,140.65
2023-05-02T11:28:30.680Z,140.93
2023-05-02T11:29:30.608Z,140.54
2023-05-02T11:30:30.568Z,138.96
2023-05-02T11:31:30.600Z,139.06
2023-05-02T11:32:30.754Z,139.18
2023-05-02T11:33:30.556Z,138.96
2023-05-02T11:34:30.550Z,136.83
2023-05-02T11:35:30.545Z,136.07
2023-05-02T11:36:30.566Z,135.05
2023-05-02T11:37:30.554Z,134.85
2023-05-02T11:38:30.559Z,134.32
2023-05-02T11:39:30.565Z,134.45
2023-05-02T11:40:30.633Z,134.49
2023-05-02T11:41:30.584Z,134.79
2023-05-02T11:42:30.605Z,134.96
2023-05-02T11:43:31.943Z,133.84
2023-05-02T11:44:30.566Z,134.30
2023-05-02T11:45:30.591Z,132.49
2023-05-02T11:46:30.612Z,133.18
2023-05-02T11:47:30.616Z,132.64
2023-05-02T11:48:30.561Z,131.71
2023-05-02T11:49:30.544Z,132.95
2023-05-02T11:50:30.549Z,131.77
2023-05-02T11:51:30.545Z,131.54
2023-05-02T11:52:30.597Z,130.48
2023-05-02T11:53:30.544Z,131.00
2023-05-02T11:54:30.548Z,130.03
2023-05-02T11:55:30.547Z,131.84
2023-05-02T11:56:30.536Z,129.27
2023-05-02T11:57:30.529Z,128.03
2023-05-02T11:58:30.565Z,128.59
2023-05-02T11:59:30.588Z,129.82
2023-05-02T12:00:31.546Z,126.94
2023-05-02T12:01:30.744Z,127.89
2023-05-02T12:02:30.773Z,128.63
2023-05-02T12:03:30.884Z,128.42
2023-05-02T12:04:30.735Z,126.73
2023-05-02T12:05:30.814Z,126.80
2023-05-02T12:06:30.816Z,126.57
2023-05-02T12:07:30.811Z,126.68
2023-05-02T12:08:30.853Z,125.21
2023-05-02T12:09:30.881Z,124.50
2023-05-02T12:10:30.901Z,124.18
2023-05-02T12:11:30.923Z,124.02
2023-05-02T12:12:30.968Z,125.01
2023-05-02T12:13:31.009Z,124.18
2023-05-02T12:14:31.028Z,124.19
2023-05-02T12:15:31.124Z,121.78
2023-05-02T12:16:31.127Z,121.95
2023-05-02T12:17:31.144Z,122.14
2023-05-02T12:18:31.142Z,121.94
2023-05-02T12:19:31.167Z,120.41
2023-05-02T12:20:31.213Z,119.23
2023-05-02T12:21:31.250Z,119.51
2023-05-02T12:22:31.244Z,119.58
2023-05-02T12:23:31.243Z,117.93
2023-05-02T12:24:31.238Z,119.56
2023-05-02T12:25:31.253Z,118.13
2023-05-02T12:26:31.268Z,118.66
2023-05-02T12:27:31.235Z,119.60
2023-05-02T12:28:31.242Z,119.60
2023-05-02T12:29:31.223Z,119.64
2023-05-02T12:30:31.244Z,119.43
2023-05-02T12:31:31.471Z,119.74
2023-05-02T12:32:31.268Z,116.54
2023-05-02T12:33:31.245Z,117.44